Time;durP1;ratioP1;P1;durP2;ratioP2;P2;SDS_P1;SDS_P2;PMS_P1;PMS_P2;Temp;Humidity;BMP_temperature;BMP_pressure;BME280_temperature;BME280_humidity;BME280_pressure;Samples;Min_cycle;Max_cycle;Signal;HPM_P1;HPM_P2
2022/11/15 00:02:03;;;;;;;1.20;1.10;;;;;;;10.25;85.63;96062.06;5092758;28;20219;-82
2022/11/15 00:04:51;;;;;;;1.97;1.27;;;;;;;10.17;86.16;96055.16;5099648;28;20207;-83
2022/11/15 00:07:36;;;;;;;2.37;1.30;;;;;;;10.19;85.85;96057.63;5093184;28;20211;-82
2022/11/15 00:10:22;;;;;;;3.10;1.10;;;;;;;10.14;87.18;96060.16;5096265;28;20227;-82
2022/11/15 00:13:07;;;;;;;2.63;1.03;;;;;;;10.10;89.24;96070.63;5099094;28;20230;-82
2022/11/15 00:15:53;;;;;;;1.30;1.00;;;;;;;9.99;90.38;96068.72;5092719;28;20199;-83
2022/11/15 00:18:38;;;;;;;1.93;1.20;;;;;;;9.96;90.58;96065.66;5095192;28;20287;-82
2022/11/15 00:21:25;;;;;;;3.17;1.40;;;;;;;9.86;90.45;96069.78;5091228;28;20208;-82
2022/11/15 00:24:11;;;;;;;3.60;1.07;;;;;;;9.97;91.37;96070.81;5099644;28;20211;-83
2022/11/15 00:26:57;;;;;;;1.43;1.07;;;;;;;9.87;91.76;96060.59;5101060;28;20220;-83
2022/11/15 00:29:43;;;;;;;1.90;1.30;;;;;;;9.90;91.99;96067.41;5099541;28;20239;-83
2022/11/15 00:32:32;;;;;;;2.63;1.30;;;;;;;9.97;91.67;96070.81;5092467;28;20211;-82
2022/11/15 00:35:18;;;;;;;4.00;1.20;;;;;;;9.98;92.40;96064.38;5092874;28;20215;-81
2022/11/15 00:38:08;;;;;;;1.70;1.30;;;;;;;9.97;92.63;96061.91;5095283;28;20262;-82
2022/11/15 00:40:53;;;;;;;1.93;1.30;;;;;;;9.97;92.85;96046.53;5094193;28;20207;-82
2022/11/15 00:43:39;;;;;;;2.10;1.17;;;;;;;10.03;94.75;96059.13;5101957;28;20207;-83
2022/11/15 00:46:26;;;;;;;2.20;1.00;;;;;;;9.99;95.10;96060.63;5095131;28;20211;-82
2022/11/15 00:49:11;;;;;;;1.10;1.00;;;;;;;10.01;96.19;96050.44;5106742;28;20211;-82
2022/11/15 00:51:57;;;;;;;1.33;1.10;;;;;;;9.99;97.23;96046.31;5096450;28;20337;-82
2022/11/15 00:54:44;;;;;;;4.03;1.20;;;;;;;9.94;99.07;96038.13;5100692;28;20235;-83
2022/11/15 00:57:29;;;;;;;1.83;1.20;;;;;;;9.90;100.00;96026.97;5097515;28;20211;-83
2022/11/15 01:00:15;;;;;;;2.00;1.50;;;;;;;9.90;100.00;96031.53;5097334;28;20285;-83
2022/11/15 01:03:01;;;;;;;2.50;1.20;;;;;;;9.85;100.00;96030.38;5090747;28;20258;-83
2022/11/15 01:05:47;;;;;;;1.50;1.23;;;;;;;9.82;100.00;96028.13;5092528;28;20216;-82
2022/11/15 01:08:33;;;;;;;2.73;1.23;;;;;;;9.75;100.00;96022.03;5095647;28;20216;-83
2022/11/15 01:11:20;;;;;;;4.20;1.40;;;;;;;9.71;100.00;96030.81;5095554;28;20235;-82
2022/11/15 01:14:06;;;;;;;2.43;1.10;;;;;;;9.65;100.00;96024.47;5090882;27;20239;-83
2022/11/15 01:16:52;;;;;;;2.23;1.20;;;;;;;9.58;100.00;96018.38;5094145;28;20320;-83
2022/11/15 01:19:38;;;;;;;1.97;1.30;;;;;;;9.53;100.00;96023.63;5092620;28;20246;-85
2022/11/15 01:22:23;;;;;;;3.07;1.40;;;;;;;9.43;100.00;96010.75;5097394;28;20222;-85
2022/11/15 01:25:09;;;;;;;1.83;1.10;;;;;;;9.36;100.00;96014.56;5095262;28;20208;-82
2022/11/15 01:27:56;;;;;;;1.70;1.00;;;;;;;9.30;100.00;96004.72;5098247;28;20210;-82
2022/11/15 01:30:42;;;;;;;1.30;1.10;;;;;;;9.29;100.00;95992.28;5089502;28;20236;-82
2022/11/15 01:33:29;;;;;;;3.67;1.33;;;;;;;9.26;100.00;95976.59;5089615;28;20305;-82
2022/11/15 01:36:16;;;;;;;1.87;1.33;;;;;;;9.23;100.00;95982.44;5098015;28;20210;-81
2022/11/15 01:39:02;;;;;;;1.73;1.37;;;;;;;9.20;100.00;95983.72;5099202;28;20215;-82
2022/11/15 01:41:48;;;;;;;2.30;1.13;;;;;;;-141.59;100.00;61776.25;5095243;28;20214;-82
2022/11/15 01:44:48;;;;;;;1.80;1.40;;;;;;;-141.59;100.00;61776.25;5091369;28;20298;-83
2022/11/15 01:47:38;;;;;;;2.43;1.43;;;;;;;-141.59;100.00;61776.25;5094151;28;20258;-83
2022/11/15 01:50:28;;;;;;;2.00;1.30;;;;;;;-141.59;100.00;61776.25;5101021;28;20207;-82
2022/11/15 01:53:14;;;;;;;1.50;1.20;;;;;;;-141.59;100.00;61776.25;5097338;28;20230;-83
2022/11/15 01:56:03;;;;;;;3.23;1.50;;;;;;;-141.59;100.00;61776.25;5092730;28;20215;-82
2022/11/15 01:58:51;;;;;;;2.57;1.60;;;;;;;-141.59;100.00;61776.25;5096086;28;20351;-83
2022/11/15 02:01:39;;;;;;;3.00;1.60;;;;;;;-141.59;100.00;61776.25;5101852;28;20302;-83
2022/11/15 02:04:28;;;;;;;2.53;1.60;;;;;;;-141.59;100.00;61776.25;5093480;28;20265;-83
2022/11/15 02:07:17;;;;;;;1.50;1.30;;;;;;;-141.59;100.00;61776.25;5097174;28;20219;-83
2022/11/15 02:10:08;;;;;;;2.27;1.80;;;;;;;-141.59;100.00;61776.25;5096352;28;20223;-82
2022/11/15 02:12:55;;;;;;;4.60;1.50;;;;;;;-141.59;100.00;61776.25;5098024;28;20237;-83
2022/11/15 02:15:51;;;;;;;2.13;1.47;;;;;;;-141.59;100.00;61776.25;5096616;28;20203;-83
2022/11/15 02:18:47;;;;;;;4.30;1.53;;;;;;;-141.59;100.00;61776.25;5097946;28;20223;-83
2022/11/15 02:21:42;;;;;;;2.80;1.47;;;;;;;-141.59;100.00;61776.25;5091371;28;20243;-83
2022/11/15 02:24:56;;;;;;;1.50;1.40;;;;;;;-141.59;100.00;61776.25;5094786;28;20218;-82
2022/11/15 02:28:25;;;;;;;6.13;1.83;;;;;;;-141.59;100.00;61776.25;5095234;28;20286;-83
2022/11/15 02:31:19;;;;;;;2.33;1.70;;;;;;;-141.59;100.00;61776.25;5095700;28;20235;-82
2022/11/15 02:34:12;;;;;;;2.13;1.63;;;;;;;-141.59;100.00;61776.25;5095314;28;20235;-82
2022/11/15 02:37:08;;;;;;;2.80;1.70;;;;;;;-141.59;100.00;61776.25;5103864;28;20227;-82
2022/11/15 02:40:03;;;;;;;2.10;1.50;;;;;;;-141.59;100.00;61776.25;5105872;28;20219;-83
2022/11/15 02:46:08;;;;;;;2.07;1.67;;;;;;;-141.59;100.00;61776.25;5099478;28;20243;-85
2022/11/15 02:48:55;;;;;;;3.97;2.03;;;;;;;-141.59;100.00;61776.25;5098952;28;20209;-81
2022/11/15 02:51:43;;;;;;;3.33;1.80;;;;;;;-141.59;100.00;61776.25;5097779;28;20219;-82
2022/11/15 02:54:32;;;;;;;2.03;1.70;;;;;;;-141.59;100.00;61776.25;5096228;28;20372;-81
2022/11/15 02:57:24;;;;;;;2.67;1.57;;;;;;;-141.59;100.00;61776.25;5093598;28;20288;-83
2022/11/15 03:00:13;;;;;;;2.07;1.60;;;;;;;-141.59;100.00;61776.25;5095721;28;20216;-82
2022/11/15 03:03:15;;;;;;;2.57;1.60;;;;;;;-141.59;100.00;61776.25;5096232;28;20200;-83
2022/11/15 03:06:16;;;;;;;3.33;1.60;;;;;;;-141.59;100.00;61776.25;5101153;28;20207;-81
2022/11/15 03:09:06;;;;;;;1.80;1.50;;;;;;;-141.59;100.00;61776.25;5095052;28;20295;-82
2022/11/15 03:12:00;;;;;;;4.07;1.50;;;;;;;-141.59;100.00;61776.25;5098754;28;20212;-82
2022/11/15 03:14:55;;;;;;;1.60;1.37;;;;;;;-141.59;100.00;61776.25;5095365;28;20246;-82
2022/11/15 03:17:48;;;;;;;1.70;1.60;;;;;;;-141.59;100.00;61776.25;5099030;28;20230;-82
2022/11/15 03:20:37;;;;;;;5.53;1.73;;;;;;;-141.59;100.00;61776.25;5093969;28;20219;-82
2022/11/15 03:23:26;;;;;;;2.57;1.93;;;;;;;-141.59;100.00;61776.25;5091379;28;20208;-83
2022/11/15 03:26:15;;;;;;;4.63;1.87;;;;;;;-141.59;100.00;61776.25;5096794;28;20208;-82
2022/11/15 03:29:05;;;;;;;2.73;1.70;;;;;;;-141.59;100.00;61776.25;5096695;28;20294;-82
2022/11/15 03:31:57;;;;;;;2.23;1.70;;;;;;;-141.59;100.00;61776.25;5101696;28;20215;-82
2022/11/15 03:34:48;;;;;;;3.60;1.60;;;;;;;-141.59;100.00;61776.25;5092584;28;20239;-83
2022/11/15 03:37:39;;;;;;;3.17;1.80;;;;;;;-141.59;100.00;61776.25;5094462;28;20211;-83
2022/11/15 03:40:34;;;;;;;3.80;2.77;;;;;;;-141.59;100.00;61776.25;5100442;28;20219;-79
2022/11/15 03:43:29;;;;;;;2.20;2.00;;;;;;;-141.59;100.00;61776.25;5098373;28;20208;-81
2022/11/15 03:46:17;;;;;;;4.60;2.23;;;;;;;-141.59;100.00;61776.25;5097197;28;20227;-82
2022/11/15 03:49:10;;;;;;;5.03;2.33;;;;;;;-141.59;100.00;61776.25;5094643;28;20239;-82
2022/11/15 03:51:58;;;;;;;7.37;2.00;;;;;;;-141.59;100.00;61776.25;5094282;28;20288;-83
2022/11/15 03:54:55;;;;;;;3.80;2.17;;;;;;;-141.59;100.00;61776.25;5092835;28;20239;-83
2022/11/15 03:57:42;;;;;;;3.10;1.93;;;;;;;-141.59;100.00;61776.25;5094106;28;20226;-83
2022/11/15 04:00:29;;;;;;;2.37;1.80;;;;;;;-141.59;100.00;61776.25;5096604;28;20215;-83
2022/11/15 04:03:15;;;;;;;4.10;2.00;;;;;;;-141.59;100.00;61776.25;5096886;28;20208;-82
2022/11/15 04:06:00;;;;;;;4.93;2.10;;;;;;;-141.59;100.00;61776.25;5096904;28;20199;-82
2022/11/15 04:08:46;;;;;;;2.73;2.20;;;;;;;-141.59;100.00;61776.25;5093903;28;20377;-82
2022/11/15 04:11:31;;;;;;;4.67;2.07;;;;;;;-141.59;100.00;61776.25;5094179;28;20239;-82
2022/11/15 04:14:18;;;;;;;3.73;1.83;;;;;;;-141.59;100.00;61776.25;5101817;28;20227;-82
2022/11/15 04:17:05;;;;;;;4.83;2.10;;;;;;;-141.59;100.00;61776.25;5100443;28;20224;-82
2022/11/15 04:26:12;;;;;;;2.77;2.30;;;;;;;-141.59;100.00;61776.25;5094502;28;20292;-82
2022/11/15 04:32:04;;;;;;;3.43;1.97;;;;;;;-141.59;100.00;61776.25;5090571;28;20230;-83
2022/11/15 04:34:49;;;;;;;4.03;2.23;;;;;;;-141.59;100.00;61776.25;5101663;28;20259;-83
2022/11/15 04:37:35;;;;;;;7.47;2.30;;;;;;;-141.59;100.00;61776.25;5104208;28;20203;-83
2022/11/15 04:40:20;;;;;;;4.83;2.20;;;;;;;-141.59;100.00;61776.25;5093198;28;20215;-82
2022/11/15 04:43:06;;;;;;;4.07;2.20;;;;;;;-141.59;100.00;61776.25;5097381;28;20304;-82
2022/11/15 04:45:52;;;;;;;4.13;2.00;;;;;;;-141.59;100.00;61776.25;5094039;28;20207;-82
2022/11/15 04:48:39;;;;;;;3.40;2.20;;;;;;;-141.59;100.00;61776.25;5099507;28;20520;-82
2022/11/15 04:51:24;;;;;;;5.67;2.30;;;;;;;-141.59;100.00;61776.25;5090175;28;20215;-82
2022/11/15 04:54:10;;;;;;;3.63;2.10;;;;;;;-141.59;100.00;61776.25;5095108;28;20224;-82
2022/11/15 04:56:56;;;;;;;4.07;2.03;;;;;;;-141.59;100.00;61776.25;5097008;28;20415;-82
2022/11/15 04:59:41;;;;;;;3.17;1.90;;;;;;;-141.59;100.00;61776.25;5091933;28;20215;-83
2022/11/15 05:04:18;;;;;;;3.03;2.40;;;;;;;-141.59;100.00;61776.25;5100467;28;20241;-82
2022/11/15 05:05:34;;;;;;;6.33;2.10;;;;;;;-141.59;100.00;61776.25;5090258;28;20258;-82
2022/11/15 05:08:19;;;;;;;4.60;2.10;;;;;;;-141.59;100.00;61776.25;5096288;28;20211;-83
2022/11/15 05:11:05;;;;;;;2.80;2.20;;;;;;;-141.59;100.00;61776.25;5093227;28;20239;-83
2022/11/15 05:13:51;;;;;;;3.70;1.70;;;;;;;-141.59;100.00;61776.25;5100028;28;20211;-82
2022/11/15 05:16:37;;;;;;;2.77;2.00;;;;;;;-141.59;100.00;61776.25;5090630;28;20322;-83
2022/11/15 05:19:23;;;;;;;2.27;1.97;;;;;;;-141.59;100.00;61776.25;5089608;28;20292;-83
2022/11/15 05:22:10;;;;;;;6.63;2.20;;;;;;;-141.59;100.00;61776.25;5107928;28;20214;-82
2022/11/15 05:24:56;;;;;;;5.27;2.33;;;;;;;-141.59;100.00;61776.25;5101982;28;20210;-82
2022/11/15 05:27:41;;;;;;;5.27;3.00;;;;;;;-141.59;100.00;61776.25;5093699;28;20216;-82
2022/11/15 05:30:26;;;;;;;6.40;3.50;;;;;;;-141.59;100.00;61776.25;5097852;28;20231;-83
2022/11/15 05:33:12;;;;;;;3.73;2.37;;;;;;;-141.59;100.00;61776.25;5100035;28;20200;-83
2022/11/15 05:36:03;;;;;;;6.37;2.50;;;;;;;-141.59;100.00;61776.25;5093047;28;20485;-82
2022/11/15 05:38:51;;;;;;;4.17;2.90;;;;;;;-141.59;100.00;61776.25;5094137;28;20215;-83
2022/11/15 05:41:40;;;;;;;6.97;5.10;;;;;;;-141.59;100.00;61776.25;5092282;28;20207;-83
2022/11/15 05:44:27;;;;;;;5.63;3.57;;;;;;;-141.59;100.00;61776.25;5094154;28;20212;-82
2022/11/15 05:47:17;;;;;;;5.67;4.67;;;;;;;-141.59;100.00;61776.25;5097771;28;20212;-83
2022/11/15 05:50:03;;;;;;;7.23;4.80;;;;;;;-141.59;100.00;61776.25;5103781;28;20212;-83
2022/11/15 05:52:49;;;;;;;6.60;4.10;;;;;;;-141.59;100.00;61776.25;5092718;28;20207;-82
2022/11/15 05:55:36;;;;;;;6.23;4.83;;;;;;;-141.59;100.00;61776.25;5102315;28;20228;-83
2022/11/15 05:58:21;;;;;;;5.53;4.10;;;;;;;-141.59;100.00;61776.25;5098202;28;20304;-83
2022/11/15 06:01:08;;;;;;;6.30;4.03;;;;;;;-141.59;100.00;61776.25;5091403;28;20245;-84
2022/11/15 06:03:53;;;;;;;5.10;4.00;;;;;;;-141.59;100.00;61776.25;5089914;28;20331;-81
2022/11/15 06:06:39;;;;;;;6.97;3.97;;;;;;;-141.59;100.00;61776.25;5090659;28;20223;-83
2022/11/15 06:09:25;;;;;;;6.97;4.30;;;;;;;-141.59;100.00;61776.25;5093150;28;20237;-83
2022/11/15 06:12:12;;;;;;;6.90;5.37;;;;;;;-141.59;100.00;61776.25;5094417;28;20289;-83
2022/11/15 06:14:57;;;;;;;6.40;4.30;;;;;;;-141.59;100.00;61776.25;5096733;28;20227;-83
2022/11/15 06:17:43;;;;;;;5.37;4.00;;;;;;;-141.59;100.00;61776.25;5093517;28;20259;-83
2022/11/15 06:20:30;;;;;;;5.83;3.47;;;;;;;-141.59;100.00;61776.25;5096693;28;20211;-84
2022/11/15 06:23:16;;;;;;;6.37;3.20;;;;;;;-141.59;100.00;61776.25;5095284;28;20215;-83
2022/11/15 06:26:03;;;;;;;4.30;3.47;;;;;;;-141.59;100.00;61776.25;5097307;28;20345;-84
2022/11/15 06:28:50;;;;;;;11.57;5.93;;;;;;;-141.59;100.00;61776.25;5098013;28;20277;-83
2022/11/15 06:31:36;;;;;;;8.33;5.00;;;;;;;-141.59;100.00;61776.25;5098455;28;20235;-83
2022/11/15 06:34:21;;;;;;;8.07;5.90;;;;;;;-141.59;100.00;61776.25;5094683;28;20245;-83
2022/11/15 06:37:06;;;;;;;44.90;28.33;;;;;;;-141.59;100.00;61776.25;5099239;28;20284;-84
2022/11/15 06:39:52;;;;;;;26.93;17.73;;;;;;;-141.59;100.00;61776.25;5103951;28;20255;-83
2022/11/15 06:42:37;;;;;;;25.57;16.97;;;;;;;-141.59;100.00;61776.25;5104115;28;20215;-84
2022/11/15 06:45:24;;;;;;;24.23;15.53;;;;;;;-141.59;100.00;61776.25;5100121;28;20215;-85
2022/11/15 06:48:09;;;;;;;18.97;12.33;;;;;;;-141.59;100.00;61776.25;5095010;28;20211;-84
2022/11/15 06:50:56;;;;;;;23.60;15.80;;;;;;;-141.59;100.00;61776.25;5101209;28;20219;-84
2022/11/15 06:53:42;;;;;;;24.83;15.53;;;;;;;-141.59;100.00;61776.25;5095945;28;20223;-83
2022/11/15 06:56:28;;;;;;;20.33;14.07;;;;;;;-141.59;100.00;61776.25;5096657;28;20244;-83
2022/11/15 06:59:13;;;;;;;28.63;17.37;;;;;;;-141.59;100.00;61776.25;5092615;28;20242;-83
2022/11/15 07:02:00;;;;;;;22.83;15.57;;;;;;;-141.59;100.00;61776.25;5094269;28;20216;-84
2022/11/15 07:04:46;;;;;;;25.40;14.73;;;;;;;-141.59;100.00;61776.25;5100118;28;20204;-83
2022/11/15 07:07:32;;;;;;;22.70;13.73;;;;;;;-141.59;100.00;61776.25;5096231;28;20211;-83
2022/11/15 07:10:17;;;;;;;18.87;13.40;;;;;;;-141.59;100.00;61776.25;5098609;28;20231;-83
2022/11/15 07:13:03;;;;;;;19.50;13.27;;;;;;;-141.59;100.00;61776.25;5093202;28;20227;-83
2022/11/15 07:15:49;;;;;;;19.07;13.40;;;;;;;-141.59;100.00;61776.25;5094166;28;20228;-84
2022/11/15 07:18:37;;;;;;;19.53;12.57;;;;;;;-141.59;100.00;61776.25;5103693;28;20211;-84
2022/11/15 07:21:24;;;;;;;19.47;11.47;;;;;;;-141.59;100.00;61776.25;5096351;28;20230;-83
2022/11/15 07:24:10;;;;;;;15.17;11.20;;;;;;;-141.59;100.00;61776.25;5095984;28;20211;-84
2022/11/15 07:26:56;;;;;;;16.80;11.13;;;;;;;-141.59;100.00;61776.25;5097773;28;20316;-83
2022/11/15 07:29:42;;;;;;;18.10;10.67;;;;;;;-141.59;100.00;61776.25;5095351;28;20233;-83
2022/11/15 07:32:28;;;;;;;16.60;10.37;;;;;;;-141.59;100.00;61776.25;5091474;28;20965;-83
2022/11/15 07:35:15;;;;;;;13.77;9.43;;;;;;;-141.59;100.00;61776.25;5092567;28;20228;-83
2022/11/15 07:38:03;;;;;;;12.57;8.73;;;;;;;-141.59;100.00;61776.25;5098142;28;20210;-84
2022/11/15 07:40:57;;;;;;;13.40;8.53;;;;;;;-141.59;100.00;61776.25;5104622;28;20214;-83
2022/11/15 07:43:43;;;;;;;12.03;8.77;;;;;;;-141.59;100.00;61776.25;5092610;28;20227;-84
2022/11/15 07:46:28;;;;;;;13.57;9.23;;;;;;;-141.59;100.00;61776.25;5104969;28;20201;-84
2022/11/15 07:49:13;;;;;;;15.57;9.17;;;;;;;-141.59;100.00;61776.25;5090477;28;20310;-80
2022/11/15 07:52:00;;;;;;;22.17;17.70;;;;;;;-141.59;100.00;61776.25;5094716;27;20224;-84
2022/11/15 07:54:46;;;;;;;20.40;15.50;;;;;;;-141.59;100.00;61776.25;5094921;28;20219;-80
2022/11/15 07:57:31;;;;;;;15.40;10.90;;;;;;;-141.59;100.00;61776.25;5095886;27;20204;-83
2022/11/15 08:00:18;;;;;;;17.00;10.97;;;;;;;-141.59;100.00;61776.25;5099564;28;20208;-82
2022/11/15 08:03:05;;;;;;;12.73;9.63;;;;;;;-141.59;100.00;61776.25;5093264;28;20220;-84
2022/11/15 08:05:52;;;;;;;13.17;9.50;;;;;;;-141.59;100.00;61776.25;5093395;28;20208;-83
2022/11/15 08:08:39;;;;;;;9.47;7.37;;;;;;;-141.59;100.00;61776.25;5094256;28;20211;-83
2022/11/15 08:11:24;;;;;;;12.97;8.37;;;;;;;-141.59;100.00;61776.25;5097874;28;20231;-84
2022/11/15 08:14:10;;;;;;;8.20;4.80;;;;;;;-141.59;100.00;61776.25;5101905;28;20252;-83
2022/11/15 08:16:55;;;;;;;8.90;5.07;;;;;;;-141.59;100.00;61776.25;5092206;28;20228;-83
2022/11/15 08:19:41;;;;;;;10.83;7.43;;;;;;;-141.59;100.00;61776.25;5097946;28;20239;-84
2022/11/15 08:22:26;;;;;;;7.10;5.43;;;;;;;-141.59;100.00;61776.25;5104303;28;20215;-83
2022/11/15 08:25:13;;;;;;;9.47;4.70;;;;;;;-141.59;100.00;61776.25;5098466;28;20208;-82
2022/11/15 08:28:01;;;;;;;8.13;3.90;;;;;;;-141.59;100.00;61776.25;5098700;28;20199;-84
2022/11/15 08:30:47;;;;;;;6.47;4.10;;;;;;;-141.59;100.00;61776.25;5097953;28;20278;-84
2022/11/15 08:33:33;;;;;;;5.23;2.57;;;;;;;-141.59;100.00;61776.25;5088699;28;20337;-83
2022/11/15 08:36:19;;;;;;;6.37;3.00;;;;;;;-141.59;100.00;61776.25;5104191;28;20231;-84
2022/11/15 08:39:05;;;;;;;9.70;3.67;;;;;;;-141.59;100.00;61776.25;5107573;28;20210;-84
2022/11/15 08:41:53;;;;;;;4.90;3.23;;;;;;;-141.59;100.00;61776.25;5092232;28;20215;-83
2022/11/15 08:44:38;;;;;;;4.73;3.03;;;;;;;-141.59;100.00;61776.25;5099882;28;20219;-81
2022/11/15 08:47:23;;;;;;;5.90;2.70;;;;;;;-141.59;100.00;61776.25;5101996;28;20215;-83
2022/11/15 08:50:10;;;;;;;3.90;2.50;;;;;;;-141.59;100.00;61776.25;5102134;28;20211;-84
2022/11/15 08:52:55;;;;;;;4.03;3.03;;;;;;;-141.59;100.00;61776.25;5094993;28;20260;-84
2022/11/15 08:55:41;;;;;;;3.83;2.73;;;;;;;-141.59;100.00;61776.25;5092082;28;20293;-84
2022/11/15 08:58:29;;;;;;;6.67;2.40;;;;;;;-141.59;100.00;61776.25;5100597;28;20219;-84
2022/11/15 09:01:17;;;;;;;5.37;2.53;;;;;;;-141.59;100.00;61776.25;5096101;28;20218;-84
2022/11/15 09:04:04;;;;;;;3.80;2.63;;;;;;;-141.59;100.00;61776.25;5092556;28;20208;-84
2022/11/15 09:06:50;;;;;;;4.33;2.67;;;;;;;-141.59;100.00;61776.25;5103518;28;20275;-83
2022/11/15 09:09:35;;;;;;;6.53;2.80;;;;;;;-141.59;100.00;61776.25;5097357;28;20353;-83
2022/11/15 09:12:21;;;;;;;6.90;2.63;;;;;;;-141.59;100.00;61776.25;5094010;28;20249;-85
2022/11/15 09:15:09;;;;;;;7.40;2.50;;;;;;;-141.59;100.00;61776.25;5093657;28;20261;-84
2022/11/15 09:17:54;;;;;;;5.50;2.83;;;;;;;-141.59;100.00;61776.25;5096727;28;20207;-84
2022/11/15 09:20:40;;;;;;;5.87;2.30;;;;;;;-141.59;100.00;61776.25;5092568;28;20231;-84
2022/11/15 09:23:25;;;;;;;4.97;2.50;;;;;;;-141.59;100.00;61776.25;5093062;28;20218;-82
2022/11/15 09:26:11;;;;;;;2.90;2.47;;;;;;;-141.59;100.00;61776.25;5107222;28;20198;-82
2022/11/15 09:28:57;;;;;;;3.77;2.47;;;;;;;-141.59;100.00;61776.25;5096177;28;20215;-84
2022/11/15 09:31:44;;;;;;;8.70;2.83;;;;;;;-141.59;100.00;61776.25;5092040;28;20305;-82
2022/11/15 09:34:29;;;;;;;3.57;2.67;;;;;;;-141.59;100.00;61776.25;5093809;28;20215;-82
2022/11/15 09:37:15;;;;;;;7.77;2.83;;;;;;;-141.59;100.00;61776.25;5098917;28;20265;-84
2022/11/15 09:40:00;;;;;;;5.27;2.63;;;;;;;-141.59;100.00;61776.25;5094391;28;20300;-84
2022/11/15 09:43:06;;;;;;;5.47;2.90;;;;;;;-141.59;100.00;61776.25;5102839;28;20210;-82
2022/11/15 09:46:00;;;;;;;8.03;2.80;;;;;;;-141.59;100.00;61776.25;5097966;28;20253;-82
2022/11/15 09:48:58;;;;;;;4.73;2.80;;;;;;;-141.59;100.00;61776.25;5099141;28;20211;-84
2022/11/15 09:51:49;;;;;;;4.37;2.70;;;;;;;-141.59;100.00;61776.25;5096180;28;20216;-83
2022/11/15 09:54:29;;;;;;;7.23;2.80;;;;;;;-141.59;100.00;61776.25;5100978;28;20188;-85
2022/11/15 09:57:02;;;;;;;3.43;2.60;;;;;;;-141.59;100.00;61776.25;5079177;28;20223;-84
2022/11/15 09:59:42;;;;;;;6.17;3.03;;;;;;;-141.59;100.00;61776.25;5082314;28;20201;-84
2022/11/15 10:02:24;;;;;;;3.37;2.40;;;;;;;-141.59;100.00;61776.25;5082405;28;20207;-83
2022/11/15 10:04:54;;;;;;;2.63;2.27;;;;;;;-141.59;100.00;61776.25;5106721;28;20200;-83
2022/11/15 10:07:27;;;;;;;3.87;2.47;;;;;;;-141.59;100.00;61776.25;5104270;28;20254;-84
2022/11/15 10:10:01;;;;;;;4.07;2.87;;;;;;;-141.59;100.00;61776.25;5083002;28;20228;-84
2022/11/15 10:12:29;;;;;;;4.07;2.57;;;;;;;-141.59;100.00;61776.25;5083121;28;20210;-85
2022/11/15 10:15:02;;;;;;;4.67;2.70;;;;;;;-141.59;100.00;61776.25;5082457;28;20208;-84
2022/11/15 10:17:55;;;;;;;4.83;2.40;;;;;;;-141.59;100.00;61776.25;5100465;27;20262;-82
2022/11/15 10:20:26;;;;;;;3.73;2.43;;;;;;;-141.59;100.00;61776.25;5084261;28;20223;-82
2022/11/15 10:22:57;;;;;;;6.40;3.57;;;;;;;-141.59;100.00;61776.25;5098300;28;20221;-82
2022/11/15 10:25:26;;;;;;;9.53;3.20;;;;;;;-141.59;100.00;61776.25;5083761;28;20211;-82
2022/11/15 10:27:56;;;;;;;7.37;2.77;;;;;;;-141.59;100.00;61776.25;5094706;28;20217;-82
2022/11/15 10:30:31;;;;;;;5.13;2.73;;;;;;;-141.59;100.00;61776.25;5083834;28;20220;-81
2022/11/15 10:32:58;;;;;;;3.60;2.10;;;;;;;-141.59;100.00;61776.25;5078823;28;20192;-82
2022/11/15 10:35:28;;;;;;;4.03;2.63;;;;;;;-141.59;100.00;61776.25;5091418;27;20220;-83
2022/11/15 10:38:06;;;;;;;6.33;2.40;;;;;;;-141.59;100.00;61776.25;5103806;28;20287;-83
2022/11/15 10:40:34;;;;;;;6.80;2.90;;;;;;;-141.59;100.00;61776.25;5085716;28;20200;-82
2022/11/15 10:43:18;;;;;;;6.17;3.37;;;;;;;-141.59;100.00;61776.25;5085226;28;20193;-84
2022/11/15 10:45:47;;;;;;;2.97;2.30;;;;;;;-141.59;100.00;61776.25;5079832;28;20269;-82
2022/11/15 10:48:26;;;;;;;4.57;2.30;;;;;;;-141.59;100.00;61776.25;5091716;28;20193;-82
2022/11/15 10:50:56;;;;;;;3.57;2.37;;;;;;;-141.59;100.00;61776.25;5081118;28;20208;-83
2022/11/15 10:53:28;;;;;;;2.80;2.30;;;;;;;-141.59;100.00;61776.25;5082527;28;20224;-79
2022/11/15 10:55:58;;;;;;;4.73;2.67;;;;;;;-141.59;100.00;61776.25;5089728;28;20216;-82
2022/11/15 10:58:35;;;;;;;5.03;2.33;;;;;;;-141.59;100.00;61776.25;5099442;28;20236;-81
2022/11/15 11:01:16;;;;;;;4.60;2.40;;;;;;;-141.59;100.00;61776.25;5085522;28;20214;-81
2022/11/15 11:03:44;;;;;;;3.03;2.50;;;;;;;-141.59;100.00;61776.25;5095818;28;20212;-81
2022/11/15 11:06:15;;;;;;;6.43;2.93;;;;;;;-141.59;100.00;61776.25;5084182;28;20252;-81
2022/11/15 11:08:57;;;;;;;4.60;2.27;;;;;;;-141.59;100.00;61776.25;5095634;28;20213;-80
2022/11/15 11:11:24;;;;;;;5.13;2.90;;;;;;;-141.59;100.00;61776.25;5090332;28;20221;-81
2022/11/15 11:13:54;;;;;;;6.83;2.50;;;;;;;-141.59;100.00;61776.25;5076459;28;20200;-81
2022/11/15 11:16:44;;;;;;;5.70;2.80;;;;;;;-141.59;100.00;61776.25;5078974;28;20232;-82
2022/11/15 11:19:29;;;;;;;3.90;2.50;;;;;;;-141.59;100.00;61776.25;5095471;28;20298;-82
2022/11/15 11:22:07;;;;;;;2.87;2.20;;;;;;;-141.59;100.00;61776.25;5098631;28;20200;-81
2022/11/15 11:24:42;;;;;;;5.20;2.30;;;;;;;-141.59;100.00;61776.25;5095240;28;20213;-83
2022/11/15 11:27:25;;;;;;;5.63;2.37;;;;;;;-141.59;100.00;61776.25;5072886;28;20216;-83
2022/11/15 11:30:07;;;;;;;5.03;2.77;;;;;;;-141.59;100.00;61776.25;5082745;28;20236;-82
2022/11/15 11:33:10;;;;;;;5.30;3.00;;;;;;;-141.59;100.00;61776.25;5083720;28;20200;-83
2022/11/15 11:35:50;;;;;;;4.13;2.40;;;;;;;-141.59;100.00;61776.25;5070317;28;20215;-84
2022/11/15 11:38:35;;;;;;;3.50;2.40;;;;;;;-141.59;100.00;61776.25;5086334;28;20204;-83
2022/11/15 11:41:15;;;;;;;6.13;2.73;;;;;;;-141.59;100.00;61776.25;5080912;28;20247;-82
2022/11/15 11:43:52;;;;;;;4.33;2.70;;;;;;;-141.59;100.00;61776.25;5078409;28;20204;-82
2022/11/15 11:46:46;;;;;;;3.23;2.40;;;;;;;-141.59;100.00;61776.25;5072566;28;20250;-81
2022/11/15 11:49:19;;;;;;;5.47;2.63;;;;;;;-141.59;100.00;61776.25;5074172;28;20205;-81
2022/11/15 11:51:51;;;;;;;5.30;2.50;;;;;;;-141.59;100.00;61776.25;5073674;28;20265;-83
2022/11/15 11:54:24;;;;;;;4.13;2.33;;;;;;;-141.59;100.00;61776.25;5075933;28;20200;-82
2022/11/15 11:56:52;;;;;;;4.60;2.50;;;;;;;-141.59;100.00;61776.25;5080902;28;20245;-82
2022/11/15 11:59:30;;;;;;;4.67;2.37;;;;;;;-141.59;100.00;61776.25;5070137;28;20204;-82
2022/11/15 12:01:59;;;;;;;4.73;2.53;;;;;;;-141.59;100.00;61776.25;5083565;28;20217;-82
2022/11/15 12:04:31;;;;;;;4.47;2.37;;;;;;;-141.59;100.00;61776.25;5073736;28;20205;-80
2022/11/15 12:07:05;;;;;;;7.30;2.60;;;;;;;-141.59;100.00;61776.25;5079932;28;20263;-83
2022/11/15 12:09:39;;;;;;;3.40;2.63;;;;;;;-141.59;100.00;61776.25;5075557;28;20203;-82
2022/11/15 12:12:12;;;;;;;3.90;2.57;;;;;;;-141.59;100.00;61776.25;5079140;28;20224;-82
2022/11/15 12:14:46;;;;;;;3.37;2.17;;;;;;;-141.59;100.00;61776.25;5073409;28;20208;-79
2022/11/15 12:17:16;;;;;;;3.57;2.40;;;;;;;-141.59;100.00;61776.25;5072713;28;20287;-81
2022/11/15 12:19:43;;;;;;;5.40;2.40;;;;;;;-141.59;100.00;61776.25;5077108;28;20236;-78
2022/11/15 12:22:20;;;;;;;8.47;2.40;;;;;;;-141.59;100.00;61776.25;5077536;28;20205;-80
2022/11/15 12:24:55;;;;;;;3.30;2.40;;;;;;;-141.59;100.00;61776.25;5079127;28;20196;-81
2022/11/15 12:27:37;;;;;;;2.70;2.00;;;;;;;-141.59;100.00;61776.25;5074051;28;20201;-81
2022/11/15 12:30:10;;;;;;;3.60;2.20;;;;;;;-141.59;100.00;61776.25;5083561;28;20319;-81
2022/11/15 12:32:40;;;;;;;4.97;2.40;;;;;;;-141.59;100.00;61776.25;5082493;28;20201;-80
2022/11/15 12:35:25;;;;;;;3.77;2.50;;;;;;;-141.59;100.00;61776.25;5072937;28;20224;-81
2022/11/15 12:37:56;;;;;;;3.07;2.40;;;;;;;-141.59;100.00;61776.25;5079770;28;20217;-81
2022/11/15 12:40:28;;;;;;;3.27;2.50;;;;;;;-141.59;100.00;61776.25;5083392;28;20274;-82
2022/11/15 12:43:14;;;;;;;5.53;2.40;;;;;;;-141.59;100.00;61776.25;5076511;28;20330;-82
2022/11/15 12:45:43;;;;;;;3.03;2.30;;;;;;;-141.59;100.00;61776.25;5054117;28;20221;-80